createdAt,value
2018-11-11T00:02:12.708Z,11.90
2018-11-11T00:04:41.154Z,11.90
2018-11-11T00:07:09.610Z,11.80
2018-11-11T00:09:38.085Z,11.80
2018-11-11T00:12:06.535Z,11.90
2018-11-11T00:14:34.983Z,11.80
2018-11-11T00:17:03.446Z,11.80
2018-11-11T00:19:31.912Z,11.80
2018-11-11T00:22:00.330Z,11.80
2018-11-11T00:24:28.789Z,11.80
2018-11-11T00:26:57.212Z,11.80
2018-11-11T00:29:25.628Z,11.90
2018-11-11T00:31:54.093Z,11.90
2018-11-11T00:34:22.526Z,11.90
2018-11-11T00:36:50.986Z,11.90
2018-11-11T00:39:19.897Z,12.00
2018-11-11T00:41:48.357Z,12.00
2018-11-11T00:44:16.809Z,12.00
2018-11-11T00:46:45.374Z,11.90
2018-11-11T00:49:13.867Z,11.90
2018-11-11T00:51:42.315Z,11.90
2018-11-11T00:54:10.825Z,11.80
2018-11-11T00:56:39.261Z,11.80
2018-11-11T00:59:08.017Z,11.80
2018-11-11T01:01:36.617Z,11.80
2018-11-11T01:04:05.401Z,11.80
2018-11-11T01:06:33.918Z,11.90
2018-11-11T01:09:02.436Z,11.90
2018-11-11T01:11:30.906Z,11.90
2018-11-11T01:13:59.360Z,11.90
2018-11-11T01:16:27.804Z,11.80
2018-11-11T01:18:56.240Z,11.90
2018-11-11T01:21:24.759Z,11.80
2018-11-11T01:23:53.197Z,11.80
2018-11-11T01:26:21.651Z,11.80
2018-11-11T01:28:50.097Z,11.80
2018-11-11T01:31:18.545Z,11.80
2018-11-11T01:33:46.997Z,11.70
2018-11-11T01:36:15.430Z,11.80
2018-11-11T01:38:43.902Z,11.80
2018-11-11T01:41:12.337Z,11.80
2018-11-11T01:43:40.822Z,11.80
2018-11-11T01:46:09.320Z,11.80
2018-11-11T01:48:37.771Z,11.80
2018-11-11T01:51:06.357Z,11.90
2018-11-11T01:53:34.809Z,11.90
2018-11-11T01:56:03.248Z,11.90
2018-11-11T01:58:31.649Z,11.80
2018-11-11T02:01:00.105Z,11.90
2018-11-11T02:03:28.537Z,11.80
2018-11-11T02:05:56.961Z,11.90
2018-11-11T02:08:25.434Z,11.90
2018-11-11T02:10:53.913Z,11.90
2018-11-11T02:13:22.629Z,11.90
2018-11-11T02:15:51.190Z,11.90
2018-11-11T02:18:19.642Z,12.00
2018-11-11T02:20:48.102Z,11.90
2018-11-11T02:23:16.529Z,11.90
2018-11-11T02:25:44.975Z,11.90
2018-11-11T02:28:13.418Z,11.90
2018-11-11T02:30:41.879Z,11.90
2018-11-11T02:33:10.325Z,11.90
2018-11-11T02:35:38.792Z,11.90
2018-11-11T02:38:07.229Z,11.80
2018-11-11T02:40:35.657Z,11.90
2018-11-11T02:43:04.197Z,11.90
2018-11-11T02:45:32.769Z,11.90
2018-11-11T02:48:01.209Z,11.80
2018-11-11T02:50:29.640Z,11.80
2018-11-11T02:52:58.066Z,11.80
2018-11-11T02:55:26.487Z,11.70
2018-11-11T02:57:54.925Z,11.70
2018-11-11T03:00:23.349Z,11.70
2018-11-11T03:02:51.823Z,11.70
2018-11-11T03:05:20.576Z,11.70
2018-11-11T03:07:49.019Z,11.70
2018-11-11T03:10:17.981Z,11.70
2018-11-11T03:12:47.347Z,11.70
2018-11-11T03:15:16.237Z,11.60
2018-11-11T03:17:44.713Z,11.60
2018-11-11T03:20:13.846Z,11.60
2018-11-11T03:22:42.306Z,11.60
2018-11-11T03:25:12.145Z,11.60
2018-11-11T03:27:40.899Z,11.60
2018-11-11T03:30:11.284Z,11.50
2018-11-11T03:32:40.138Z,11.50
2018-11-11T03:35:10.449Z,11.50
2018-11-11T03:37:38.946Z,11.50
2018-11-11T03:40:13.257Z,11.50
2018-11-11T03:42:41.915Z,11.50
2018-11-11T03:45:12.257Z,11.50
2018-11-11T03:47:41.344Z,11.50
2018-11-11T03:50:10.658Z,11.60
2018-11-11T03:52:39.507Z,11.60
2018-11-11T03:55:08.533Z,11.60
2018-11-11T03:57:37.292Z,11.50
2018-11-11T04:00:07.278Z,11.60
2018-11-11T04:02:35.729Z,11.60
2018-11-11T04:05:04.245Z,11.60
2018-11-11T04:07:32.668Z,11.60
2018-11-11T04:10:01.128Z,11.60
2018-11-11T04:12:29.559Z,11.60
2018-11-11T04:14:58.032Z,11.50
2018-11-11T04:17:26.473Z,11.40
2018-11-11T04:19:54.882Z,11.50
2018-11-11T04:22:23.315Z,11.50
2018-11-11T04:24:52.703Z,11.50
2018-11-11T04:27:21.541Z,11.50
2018-11-11T04:29:50.034Z,11.50
2018-11-11T04:32:18.490Z,11.60
2018-11-11T04:34:46.929Z,11.60
2018-11-11T04:37:15.434Z,11.60
2018-11-11T04:39:43.889Z,11.70
2018-11-11T04:42:12.331Z,11.70
2018-11-11T04:44:40.771Z,11.70
2018-11-11T04:47:09.210Z,11.60
2018-11-11T04:49:37.670Z,11.60
2018-11-11T04:52:06.183Z,11.60
2018-11-11T04:54:34.621Z,11.60
2018-11-11T04:57:03.124Z,11.60
2018-11-11T04:59:31.563Z,11.60
2018-11-11T05:02:00.052Z,11.70
2018-11-11T05:04:28.479Z,11.60
2018-11-11T05:06:57.312Z,11.60
2018-11-11T05:09:25.881Z,11.60
2018-11-11T05:11:54.304Z,11.60
2018-11-11T05:14:22.745Z,11.50
2018-11-11T05:16:51.189Z,11.50
2018-11-11T05:19:19.671Z,11.50
2018-11-11T05:21:48.230Z,11.50
2018-11-11T05:24:17.787Z,11.50
2018-11-11T05:26:46.205Z,11.40
2018-11-11T05:29:14.675Z,11.40
2018-11-11T05:31:43.873Z,11.40
2018-11-11T05:34:12.300Z,11.40
2018-11-11T05:36:40.789Z,11.40
2018-11-11T05:39:11.010Z,11.40
2018-11-11T05:41:39.493Z,11.40
2018-11-11T05:44:08.504Z,11.30
2018-11-11T05:46:36.960Z,11.30
2018-11-11T05:49:05.429Z,11.30
2018-11-11T05:51:33.885Z,11.30
2018-11-11T05:54:02.423Z,11.30
2018-11-11T05:56:30.862Z,11.30
2018-11-11T05:58:59.336Z,11.30
2018-11-11T06:01:27.797Z,11.30
2018-11-11T06:03:56.282Z,11.30
2018-11-11T06:06:24.746Z,11.30
2018-11-11T06:08:53.182Z,11.20
2018-11-11T06:11:21.672Z,11.30
2018-11-11T06:13:50.158Z,11.30
2018-11-11T06:16:18.601Z,11.30
2018-11-11T06:18:48.071Z,11.20
2018-11-11T06:21:16.580Z,11.30
2018-11-11T06:23:45.150Z,11.20
2018-11-11T06:26:13.578Z,11.30
2018-11-11T06:28:42.042Z,11.30
2018-11-11T06:31:10.522Z,11.20
2018-11-11T06:33:38.993Z,11.10
2018-11-11T06:36:07.478Z,11.10
2018-11-11T06:38:35.923Z,11.20
2018-11-11T06:41:04.382Z,11.20
2018-11-11T06:43:32.833Z,11.20
2018-11-11T06:46:02.279Z,11.20
2018-11-11T06:48:30.687Z,11.30
2018-11-11T06:50:59.133Z,11.30
2018-11-11T06:53:27.572Z,11.20
2018-11-11T06:55:56.013Z,11.20
2018-11-11T06:58:24.449Z,11.20
2018-11-11T07:00:52.894Z,11.20
2018-11-11T07:03:40.525Z,11.20
2018-11-11T07:06:08.973Z,11.20
2018-11-11T07:08:37.393Z,11.20
2018-11-11T07:11:05.843Z,11.30
2018-11-11T07:13:34.293Z,11.40
2018-11-11T07:16:02.746Z,11.40
2018-11-11T07:18:31.186Z,11.40
2018-11-11T07:20:59.634Z,11.40
2018-11-11T07:23:28.071Z,11.50
2018-11-11T07:25:56.549Z,11.50
2018-11-11T07:28:25.016Z,11.60
2018-11-11T07:30:53.493Z,11.60
2018-11-11T07:33:21.974Z,11.60
2018-11-11T07:35:50.471Z,11.60
2018-11-11T07:38:18.881Z,11.70
2018-11-11T07:40:48.333Z,11.70
2018-11-11T07:43:16.841Z,11.80
2018-11-11T07:45:45.383Z,11.70
2018-11-11T07:48:13.885Z,11.60
2018-11-11T07:50:42.324Z,11.60
2018-11-11T07:53:10.880Z,11.70
2018-11-11T07:55:39.414Z,11.70
2018-11-11T07:58:07.943Z,11.80
2018-11-11T08:00:37.149Z,11.90
2018-11-11T08:03:05.663Z,12.10
2018-11-11T08:05:37.663Z,12.10
2018-11-11T08:08:06.159Z,12.10
2018-11-11T08:10:45.842Z,12.20
2018-11-11T08:13:14.309Z,12.10
2018-11-11T08:15:42.735Z,12.20
2018-11-11T08:18:11.203Z,12.20
2018-11-11T08:20:39.635Z,12.30
2018-11-11T08:23:08.084Z,12.30
2018-11-11T08:25:36.635Z,12.30
2018-11-11T08:28:05.074Z,12.40
2018-11-11T08:30:33.532Z,12.40
2018-11-11T08:33:02.009Z,12.50
2018-11-11T08:35:30.481Z,12.40
2018-11-11T08:37:58.905Z,12.30
2018-11-11T08:40:27.489Z,12.30
2018-11-11T08:42:55.927Z,12.20
2018-11-11T08:45:24.420Z,12.20
2018-11-11T08:47:52.932Z,12.20
2018-11-11T08:50:21.428Z,12.20
2018-11-11T08:52:49.879Z,12.30
2018-11-11T08:55:18.401Z,12.30
2018-11-11T08:57:46.891Z,12.40
2018-11-11T09:00:15.665Z,12.40
2018-11-11T09:02:44.104Z,12.50
2018-11-11T09:05:12.557Z,12.50
2018-11-11T09:07:41.035Z,12.50
2018-11-11T09:10:11.021Z,12.50
2018-11-11T09:12:39.504Z,12.50
2018-11-11T09:15:10.462Z,12.50
2018-11-11T09:17:39.366Z,12.50
2018-11-11T09:20:07.994Z,12.50
2018-11-11T09:22:36.452Z,12.50
2018-11-11T09:25:05.668Z,12.60
2018-11-11T09:27:34.078Z,12.70
2018-11-11T09:30:02.544Z,12.80
2018-11-11T09:32:31.086Z,12.90
2018-11-11T09:34:59.578Z,13.00
2018-11-11T09:37:27.985Z,13.00
2018-11-11T09:39:56.440Z,13.10
2018-11-11T09:42:24.921Z,13.20
2018-11-11T09:44:53.365Z,13.10
2018-11-11T09:47:22.962Z,13.10
2018-11-11T09:49:51.424Z,13.20
2018-11-11T09:52:20.010Z,13.30
2018-11-11T09:54:48.461Z,13.40
2018-11-11T09:57:16.900Z,13.50
2018-11-11T09:59:45.376Z,13.50
2018-11-11T10:02:13.852Z,13.60
2018-11-11T10:05:04.646Z,13.70
2018-11-11T10:07:41.378Z,13.70
2018-11-11T10:10:20.035Z,13.80
2018-11-11T10:12:52.037Z,13.90
2018-11-11T10:15:25.901Z,13.70
2018-11-11T10:18:04.773Z,13.70
2018-11-11T10:20:47.064Z,13.60
2018-11-11T10:23:22.322Z,13.60
2018-11-11T10:26:54.733Z,13.60
2018-11-11T10:29:26.874Z,13.70
2018-11-11T10:32:04.487Z,13.70
2018-11-11T10:34:41.720Z,13.70
2018-11-11T10:37:14.360Z,13.90
2018-11-11T10:39:46.526Z,13.80
2018-11-11T10:42:25.573Z,13.90
2018-11-11T10:44:58.508Z,14.00
2018-11-11T10:47:32.625Z,14.00
2018-11-11T10:50:03.645Z,14.00
2018-11-11T10:52:32.068Z,14.00
2018-11-11T10:55:00.574Z,14.10
2018-11-11T10:57:29.022Z,14.10
2018-11-11T10:59:57.484Z,14.20
2018-11-11T11:02:27.788Z,14.20
2018-11-11T11:05:01.594Z,14.20
2018-11-11T11:07:30.066Z,14.20
2018-11-11T11:09:58.532Z,14.20
2018-11-11T11:12:27.157Z,14.10
2018-11-11T11:14:55.641Z,14.10
2018-11-11T11:17:24.070Z,14.20
2018-11-11T11:19:52.631Z,14.20
2018-11-11T11:22:21.135Z,14.20
2018-11-11T11:24:49.569Z,14.20
2018-11-11T11:27:18.064Z,14.30
2018-11-11T11:29:46.460Z,14.30
2018-11-11T11:32:15.027Z,14.30
2018-11-11T11:34:43.419Z,14.30
2018-11-11T11:37:11.874Z,14.40
2018-11-11T11:39:40.421Z,14.50
2018-11-11T11:42:08.855Z,14.50
2018-11-11T11:44:37.298Z,14.50
2018-11-11T11:47:06.050Z,14.40
2018-11-11T11:49:34.549Z,14.40
2018-11-11T11:52:03.083Z,14.40
2018-11-11T11:54:31.612Z,14.30
2018-11-11T11:57:00.074Z,14.30
2018-11-11T11:59:28.553Z,14.30
2018-11-11T12:01:57.008Z,14.20
2018-11-11T12:04:25.453Z,14.10
2018-11-11T12:06:53.912Z,14.00
2018-11-11T12:09:22.349Z,13.90
2018-11-11T12:11:51.800Z,13.80
2018-11-11T12:14:20.203Z,13.70
2018-11-11T12:16:48.756Z,13.60
2018-11-11T12:19:17.165Z,13.50
2018-11-11T12:21:45.670Z,13.40
2018-11-11T12:24:14.113Z,13.40
2018-11-11T12:26:42.634Z,13.30
2018-11-11T12:29:11.107Z,13.30
2018-11-11T12:31:39.590Z,13.20
2018-11-11T12:34:08.125Z,13.20
2018-11-11T12:36:36.569Z,13.10
2018-11-11T12:39:08.431Z,13.10
2018-11-11T12:41:36.966Z,13.00
2018-11-11T12:44:05.694Z,13.00
2018-11-11T12:46:34.188Z,13.00
2018-11-11T12:49:02.663Z,12.90
2018-11-11T12:51:31.087Z,13.00
2018-11-11T12:53:59.755Z,13.00
2018-11-11T12:56:28.187Z,12.90
2018-11-11T12:58:56.895Z,12.90
2018-11-11T13:01:25.335Z,12.80
2018-11-11T13:03:53.813Z,12.70
2018-11-11T13:06:22.217Z,12.70
2018-11-11T13:08:50.664Z,12.50
2018-11-11T13:11:19.270Z,12.50
2018-11-11T13:13:47.697Z,12.40
2018-11-11T13:16:16.132Z,12.40
2018-11-11T13:18:44.583Z,12.30
2018-11-11T13:21:13.025Z,12.30
2018-11-11T13:23:41.552Z,12.30
2018-11-11T13:26:10.012Z,12.10
2018-11-11T13:28:38.448Z,12.10
2018-11-11T13:31:07.237Z,12.10
2018-11-11T13:33:35.697Z,12.00
2018-11-11T13:36:04.248Z,12.10
2018-11-11T13:38:33.385Z,12.00
2018-11-11T13:41:01.813Z,11.90
2018-11-11T13:43:30.213Z,11.90
2018-11-11T13:45:58.646Z,11.80
2018-11-11T13:48:27.137Z,11.80
2018-11-11T13:50:55.595Z,11.80
2018-11-11T13:53:24.025Z,11.80
2018-11-11T13:55:52.530Z,11.80
2018-11-11T13:58:20.989Z,11.80
2018-11-11T14:00:49.425Z,11.80
2018-11-11T14:03:17.858Z,11.90
2018-11-11T14:05:46.305Z,11.80
2018-11-11T14:08:14.792Z,11.90
2018-11-11T14:10:43.262Z,11.80
2018-11-11T14:13:11.666Z,11.80
2018-11-11T14:15:40.089Z,11.90
2018-11-11T14:18:08.719Z,12.00
2018-11-11T14:20:37.046Z,12.00
2018-11-11T14:23:05.857Z,12.00
2018-11-11T14:25:34.349Z,12.00
2018-11-11T14:28:02.770Z,12.00
2018-11-11T14:30:31.217Z,12.00
2018-11-11T14:32:59.965Z,12.10
2018-11-11T14:35:28.448Z,12.10
2018-11-11T14:37:56.905Z,12.00
2018-11-11T14:40:26.839Z,12.00
2018-11-11T14:42:55.300Z,12.00
2018-11-11T14:45:24.185Z,12.00
2018-11-11T14:47:53.842Z,12.00
2018-11-11T14:50:23.045Z,11.90
2018-11-11T14:52:51.786Z,12.00
2018-11-11T14:55:21.585Z,11.90
2018-11-11T14:57:50.153Z,11.90
2018-11-11T15:00:28.545Z,11.90
2018-11-11T15:03:03.430Z,11.90
2018-11-11T15:05:32.136Z,12.00
2018-11-11T15:08:00.706Z,12.00
2018-11-11T15:10:29.131Z,11.90
2018-11-11T15:12:57.682Z,12.00
2018-11-11T15:15:26.366Z,12.00
2018-11-11T15:17:55.723Z,12.00
2018-11-11T15:20:24.402Z,12.00
2018-11-11T15:22:52.707Z,12.10
2018-11-11T15:25:22.530Z,12.10
2018-11-11T15:27:51.001Z,12.10
2018-11-11T15:30:23.824Z,12.10
2018-11-11T15:32:52.773Z,12.10
2018-11-11T15:35:21.220Z,12.10
2018-11-11T15:37:49.669Z,12.20
2018-11-11T15:40:19.549Z,12.20
2018-11-11T15:42:47.983Z,12.10
2018-11-11T15:45:17.725Z,12.10
2018-11-11T15:47:46.191Z,12.10
2018-11-11T15:50:16.467Z,12.10
2018-11-11T15:52:46.640Z,12.20
2018-11-11T15:55:15.750Z,12.20
2018-11-11T15:57:44.230Z,12.10
2018-11-11T16:00:15.060Z,12.20
2018-11-11T16:02:44.047Z,12.20
2018-11-11T16:05:13.237Z,12.20
2018-11-11T16:07:42.426Z,12.20
2018-11-11T16:10:12.704Z,12.20
2018-11-11T16:12:41.186Z,12.20
2018-11-11T16:15:11.881Z,12.20
2018-11-11T16:17:40.673Z,12.20
2018-11-11T16:20:12.008Z,12.20
2018-11-11T16:22:40.798Z,12.20
2018-11-11T16:25:10.180Z,12.10
2018-11-11T16:27:39.596Z,12.20
2018-11-11T16:30:10.588Z,12.10
2018-11-11T16:32:39.050Z,12.10
2018-11-11T16:35:09.389Z,12.10
2018-11-11T16:37:38.284Z,12.10
2018-11-11T16:40:09.682Z,12.10
2018-11-11T16:42:38.146Z,12.20
2018-11-11T16:45:07.678Z,12.10
2018-11-11T16:47:36.461Z,12.20
2018-11-11T16:50:05.870Z,12.10
2018-11-11T16:52:34.692Z,12.20
2018-11-11T16:55:03.151Z,12.10
2018-11-11T16:57:31.612Z,12.20
2018-11-11T17:00:00.055Z,12.20
2018-11-11T17:02:28.479Z,12.10
2018-11-11T17:04:57.001Z,12.20
2018-11-11T17:07:25.435Z,12.20
2018-11-11T17:09:53.858Z,12.30
2018-11-11T17:12:22.372Z,12.30
2018-11-11T17:14:50.799Z,12.30
2018-11-11T17:17:19.244Z,12.40
2018-11-11T17:19:47.709Z,12.30
2018-11-11T17:22:16.350Z,12.40
2018-11-11T17:24:44.577Z,12.50
2018-11-11T17:27:13.104Z,12.50
2018-11-11T17:29:41.600Z,12.50
2018-11-11T17:32:10.009Z,12.60
2018-11-11T17:34:38.448Z,12.60
2018-11-11T17:37:06.923Z,12.60
2018-11-11T17:39:35.364Z,12.50
2018-11-11T17:42:03.853Z,12.50
2018-11-11T17:44:32.301Z,12.50
2018-11-11T17:47:00.759Z,12.40
2018-11-11T17:49:29.206Z,12.40
2018-11-11T17:51:57.625Z,12.40
2018-11-11T17:54:26.107Z,12.30
2018-11-11T17:56:54.517Z,12.20
2018-11-11T17:59:22.954Z,12.20
2018-11-11T18:01:51.423Z,12.10
2018-11-11T18:04:19.846Z,12.00
2018-11-11T18:06:48.266Z,12.00
2018-11-11T18:09:16.693Z,12.00
2018-11-11T18:11:45.122Z,12.10
2018-11-11T18:14:13.624Z,12.10
2018-11-11T18:16:42.002Z,12.10
2018-11-11T18:19:10.435Z,12.10
2018-11-11T18:21:38.865Z,12.00
2018-11-11T18:24:07.321Z,12.00
2018-11-11T18:26:35.776Z,12.00
2018-11-11T18:29:04.193Z,12.00
2018-11-11T18:31:32.638Z,12.10
2018-11-11T18:34:01.068Z,12.10
2018-11-11T18:36:29.481Z,12.00
2018-11-11T18:38:57.958Z,12.10
2018-11-11T18:41:26.394Z,12.00
2018-11-11T18:43:54.976Z,12.00
2018-11-11T18:46:23.450Z,12.00
2018-11-11T18:48:51.900Z,11.90
2018-11-11T18:51:20.526Z,12.00
2018-11-11T18:53:48.976Z,11.90
2018-11-11T18:56:17.453Z,11.90
2018-11-11T18:58:45.864Z,11.90
2018-11-11T19:01:14.282Z,12.00
2018-11-11T19:03:42.719Z,12.00
2018-11-11T19:06:11.147Z,11.90
2018-11-11T19:08:40.180Z,11.90
2018-11-11T19:11:09.175Z,11.80
2018-11-11T19:13:37.472Z,11.90
2018-11-11T19:16:06.416Z,11.80
2018-11-11T19:18:34.840Z,11.70
2018-11-11T19:21:03.349Z,11.70
2018-11-11T19:23:31.805Z,11.60
2018-11-11T19:26:00.233Z,11.60
2018-11-11T19:28:28.714Z,11.50
2018-11-11T19:30:57.175Z,11.50
2018-11-11T19:33:25.711Z,11.50
2018-11-11T19:35:54.086Z,11.50
2018-11-11T19:38:22.977Z,11.40
2018-11-11T19:40:51.412Z,11.30
2018-11-11T19:43:19.833Z,11.30
2018-11-11T19:45:48.263Z,11.40
2018-11-11T19:48:16.735Z,11.40
2018-11-11T19:50:45.226Z,11.30
2018-11-11T19:53:13.700Z,11.30
2018-11-11T19:55:42.182Z,11.30
2018-11-11T19:58:10.593Z,11.40
2018-11-11T20:00:39.035Z,11.30
2018-11-11T20:03:07.453Z,11.40
2018-11-11T20:05:35.877Z,11.40
2018-11-11T20:08:04.378Z,11.40
2018-11-11T20:10:32.806Z,11.30
2018-11-11T20:13:01.712Z,11.20
2018-11-11T20:15:32.485Z,11.10
2018-11-11T20:18:00.919Z,11.00
2018-11-11T20:20:34.854Z,11.00
2018-11-11T20:23:03.301Z,11.00
2018-11-11T20:25:31.786Z,10.90
2018-11-11T20:28:00.264Z,11.00
2018-11-11T20:30:30.045Z,11.00
2018-11-11T20:32:58.480Z,11.00
2018-11-11T20:35:28.212Z,11.00
2018-11-11T20:37:56.626Z,10.90
2018-11-11T20:40:26.127Z,11.00
2018-11-11T20:42:55.056Z,11.00
2018-11-11T20:45:25.029Z,11.10
2018-11-11T20:47:53.571Z,11.00
2018-11-11T20:50:23.357Z,10.90
2018-11-11T20:52:53.342Z,10.90
2018-11-11T20:55:22.234Z,10.90
2018-11-11T20:57:50.787Z,10.90
2018-11-11T21:00:20.557Z,11.00
2018-11-11T21:02:49.057Z,11.00
2018-11-11T21:05:19.008Z,11.00
2018-11-11T21:07:47.483Z,10.90
2018-11-11T21:10:17.195Z,10.90
2018-11-11T21:12:45.634Z,11.00
2018-11-11T21:15:16.113Z,11.00
2018-11-11T21:17:45.017Z,10.90
2018-11-11T21:20:14.837Z,10.90
2018-11-11T21:22:43.487Z,10.90
2018-11-11T21:25:12.232Z,11.00
2018-11-11T21:27:41.503Z,11.00
2018-11-11T21:30:14.124Z,11.00
2018-11-11T21:32:42.598Z,11.00
2018-11-11T21:35:11.659Z,11.00
2018-11-11T21:37:40.346Z,11.00
2018-11-11T21:40:10.551Z,11.00
2018-11-11T21:42:39.594Z,11.00
2018-11-11T21:45:09.565Z,10.90
2018-11-11T21:47:38.060Z,11.00
2018-11-11T21:50:08.546Z,11.00
2018-11-11T21:52:37.099Z,11.00
2018-11-11T21:55:06.357Z,11.10
2018-11-11T21:57:34.881Z,11.10
2018-11-11T22:00:03.418Z,11.10
2018-11-11T22:02:31.875Z,11.10
2018-11-11T22:05:00.322Z,11.20
2018-11-11T22:07:28.762Z,11.10
2018-11-11T22:09:57.268Z,11.10
2018-11-11T22:12:26.211Z,11.10
2018-11-11T22:14:54.624Z,11.10
2018-11-11T22:17:23.070Z,11.10
